Time;durP1;ratioP1;P1;durP2;ratioP2;P2;SDS_P1;SDS_P2;PMS_P1;PMS_P2;Temp;Humidity;BMP_temperature;BMP_pressure;BME280_temperature;BME280_humidity;BME280_pressure;Samples;Min_cycle;Max_cycle;Signal;HPM_P1;HPM_P2
2022/10/23 00:02:21;;;;;;;;;14.00;14.00;;;;;;;;5076690;28;45366;-67
2022/10/23 00:04:49;;;;;;;;;7.00;7.00;;;;;;;;5080573;27;45403;-69
2022/10/23 00:07:14;;;;;;;;;7.25;7.25;;;;;;;;5080181;27;45298;-65
2022/10/23 00:09:40;;;;;;;;;7.00;7.00;;;;;;;;5078214;27;45275;-65
2022/10/23 00:12:05;;;;;;;;;12.00;12.00;;;;;;;;5077742;27;45529;-68
2022/10/23 00:14:30;;;;;;;;;15.75;15.75;;;;;;;;5080354;27;45519;-69
2022/10/23 00:16:55;;;;;;;;;11.00;11.00;;;;;;;;5076415;27;45450;-70
2022/10/23 00:19:20;;;;;;;;;7.00;7.00;;;;;;;;5114252;27;45377;-70
2022/10/23 00:21:46;;;;;;;;;6.50;6.50;;;;;;;;5077637;28;46525;-69
2022/10/23 00:24:11;;;;;;;;;9.50;9.50;;;;;;;;5076873;27;45583;-71
2022/10/23 00:26:38;;;;;;;;;7.25;7.25;;;;;;;;5078861;27;45209;-67
2022/10/23 00:29:03;;;;;;;;;9.00;9.00;;;;;;;;5079909;27;45286;-70
2022/10/23 00:31:28;;;;;;;;;5.00;5.00;;;;;;;;5111059;27;46936;-70
2022/10/23 00:33:54;;;;;;;;;5.25;5.25;;;;;;;;5077521;27;45304;-70
2022/10/23 00:36:20;;;;;;;;;5.25;5.25;;;;;;;;5077616;27;45394;-69
2022/10/23 00:38:45;;;;;;;;;5.25;5.25;;;;;;;;5078177;28;45209;-69
2022/10/23 00:41:15;;;;;;;;;6.00;6.00;;;;;;;;5076823;27;45377;-68
2022/10/23 00:43:59;;;;;;;;;7.00;7.00;;;;;;;;5079941;27;45408;-67
2022/10/23 00:46:24;;;;;;;;;7.25;7.25;;;;;;;;5081088;28;45431;-70
2022/10/23 00:48:49;;;;;;;;;6.25;6.25;;;;;;;;5079644;27;45365;-72
2022/10/23 00:51:15;;;;;;;;;7.00;7.00;;;;;;;;5077564;27;45392;-70
2022/10/23 00:53:42;;;;;;;;;5.50;5.00;;;;;;;;5081403;27;45317;-71
2022/10/23 00:56:07;;;;;;;;;5.25;5.25;;;;;;;;5078106;28;45330;-69
2022/10/23 00:58:32;;;;;;;;;6.25;6.25;;;;;;;;5078039;27;45337;-71
2022/10/23 01:00:57;;;;;;;;;5.25;5.25;;;;;;;;5077771;28;45282;-70
2022/10/23 01:03:24;;;;;;;;;5.25;5.25;;;;;;;;5076118;28;45394;-68
2022/10/23 01:05:55;;;;;;;;;4.00;4.00;;;;;;;;5077118;27;45293;-70
2022/10/23 01:08:33;;;;;;;;;4.25;4.25;;;;;;;;5077000;28;45298;-70
2022/10/23 01:11:24;;;;;;;;;6.00;6.00;;;;;;;;5076925;27;45299;-70
2022/10/23 01:13:58;;;;;;;;;3.00;3.00;;;;;;;;5055819;27;45411;-70
2022/10/23 01:16:46;;;;;;;;;6.50;6.50;;;;;;;;5077898;27;45968;-69
2022/10/23 01:19:24;;;;;;;;;6.00;6.00;;;;;;;;5050408;27;45460;-67
2022/10/23 01:22:08;;;;;;;;;4.00;4.00;;;;;;;;5083192;27;46226;-69
2022/10/23 01:24:44;;;;;;;;;3.75;3.75;;;;;;;;5079659;28;45425;-69
2022/10/23 01:27:12;;;;;;;;;4.00;4.00;;;;;;;;5082840;27;45403;-67
2022/10/23 01:29:48;;;;;;;;;4.25;4.25;;;;;;;;5080206;27;45525;-70
2022/10/23 01:32:21;;;;;;;;;3.25;3.25;;;;;;;;5079517;27;46748;-70
2022/10/23 01:34:59;;;;;;;;;4.00;4.00;;;;;;;;5080924;28;45430;-68
2022/10/23 01:37:28;;;;;;;;;3.00;3.00;;;;;;;;5079497;28;45363;-70
2022/10/23 01:39:55;;;;;;;;;3.50;3.50;;;;;;;;5111913;27;45291;-71
2022/10/23 01:42:23;;;;;;;;;2.75;2.75;;;;;;;;5079162;27;45293;-67
2022/10/23 01:45:11;;;;;;;;;4.00;4.00;;;;;;;;5078039;27;45323;-71
2022/10/23 01:47:37;;;;;;;;;3.00;3.00;;;;;;;;5048719;27;46005;-70
2022/10/23 01:50:04;;;;;;;;;2.75;2.75;;;;;;;;5078029;27;45251;-68
2022/10/23 01:52:30;;;;;;;;;3.00;3.00;;;;;;;;5077569;27;47466;-69
2022/10/23 01:54:58;;;;;;;;;4.25;4.25;;;;;;;;5075675;28;45400;-64
2022/10/23 01:57:24;;;;;;;;;4.00;4.00;;;;;;;;5077036;27;45331;-66
2022/10/23 01:59:52;;;;;;;;;4.00;4.00;;;;;;;;5078870;28;45360;-66
2022/10/23 02:02:19;;;;;;;;;3.00;3.00;;;;;;;;5077662;27;46413;-70
2022/10/23 02:05:04;;;;;;;;;4.00;4.00;;;;;;;;5076397;28;45302;-66
2022/10/23 02:07:30;;;;;;;;;4.75;4.75;;;;;;;;5079881;28;45329;-70
2022/10/23 02:09:55;;;;;;;;;4.75;4.75;;;;;;;;5077599;27;45648;-69
2022/10/23 02:12:32;;;;;;;;;5.00;5.00;;;;;;;;5077328;27;45589;-69
2022/10/23 02:15:02;;;;;;;;;4.75;4.75;;;;;;;;5077646;27;45405;-71
2022/10/23 02:17:30;;;;;;;;;4.00;4.00;;;;;;;;5110449;27;45270;-70
2022/10/23 02:20:11;;;;;;;;;4.00;4.00;;;;;;;;5077612;27;45368;-66
2022/10/23 02:22:39;;;;;;;;;5.00;5.00;;;;;;;;5078693;28;45204;-65
2022/10/23 02:25:10;;;;;;;;;4.75;4.75;;;;;;;;5076414;27;45391;-66
2022/10/23 02:27:41;;;;;;;;;2.75;2.75;;;;;;;;5074564;28;45382;-64
2022/10/23 02:30:07;;;;;;;;;5.00;5.00;;;;;;;;5075777;28;45473;-65
2022/10/23 02:32:34;;;;;;;;;4.50;4.50;;;;;;;;5080488;27;45567;-66
2022/10/23 02:34:59;;;;;;;;;4.25;4.25;;;;;;;;5079791;28;45820;-65
2022/10/23 02:37:24;;;;;;;;;4.25;4.25;;;;;;;;5114368;27;45260;-64
2022/10/23 02:39:50;;;;;;;;;6.00;6.00;;;;;;;;5082420;27;45229;-69
2022/10/23 02:42:22;;;;;;;;;4.25;4.25;;;;;;;;5079542;27;45315;-65
2022/10/23 02:44:50;;;;;;;;;3.50;3.50;;;;;;;;5112667;27;45437;-65
2022/10/23 02:47:33;;;;;;;;;5.00;5.00;;;;;;;;5079929;27;45414;-70
2022/10/23 02:50:02;;;;;;;;;4.00;4.00;;;;;;;;5078379;28;45346;-65
2022/10/23 02:52:36;;;;;;;;;4.00;4.00;;;;;;;;5079706;27;46415;-65
2022/10/23 02:55:04;;;;;;;;;6.00;6.00;;;;;;;;5080075;27;45211;-66
2022/10/23 02:57:32;;;;;;;;;4.00;4.00;;;;;;;;5079468;27;45307;-66
2022/10/23 03:00:17;;;;;;;;;4.00;4.00;;;;;;;;5079913;27;45378;-68
2022/10/23 03:02:53;;;;;;;;;4.00;4.00;;;;;;;;5079440;27;45270;-69
2022/10/23 03:05:23;;;;;;;;;5.00;5.00;;;;;;;;5079979;27;45374;-69
2022/10/23 03:07:49;;;;;;;;;7.25;7.25;;;;;;;;5112846;27;45396;-69
2022/10/23 03:10:14;;;;;;;;;6.00;6.00;;;;;;;;5079956;28;45234;-69
2022/10/23 03:12:39;;;;;;;;;5.00;5.00;;;;;;;;5078579;28;47343;-69
2022/10/23 03:15:06;;;;;;;;;6.00;6.00;;;;;;;;5079973;27;45181;-70
2022/10/23 03:17:31;;;;;;;;;4.00;4.00;;;;;;;;5082074;27;45378;-67
2022/10/23 03:19:56;;;;;;;;;5.00;5.00;;;;;;;;5080256;27;45397;-67
2022/10/23 03:22:21;;;;;;;;;4.25;4.25;;;;;;;;5079835;28;46398;-67
2022/10/23 03:24:47;;;;;;;;;4.00;4.00;;;;;;;;5079748;27;45388;-67
2022/10/23 03:27:12;;;;;;;;;8.00;8.00;;;;;;;;5079978;28;45409;-67
2022/10/23 03:29:37;;;;;;;;;5.75;5.75;;;;;;;;5080508;28;45306;-70
2022/10/23 03:32:03;;;;;;;;;6.50;6.50;;;;;;;;5081722;27;45481;-69
2022/10/23 03:34:28;;;;;;;;;6.25;6.25;;;;;;;;5113868;27;45441;-70
2022/10/23 03:36:53;;;;;;;;;4.75;4.75;;;;;;;;5080594;28;45332;-70
2022/10/23 03:39:18;;;;;;;;;6.50;6.50;;;;;;;;5080491;27;45590;-71
2022/10/23 03:41:43;;;;;;;;;5.75;5.75;;;;;;;;5080136;28;46022;-70
2022/10/23 03:44:09;;;;;;;;;3.50;3.50;;;;;;;;5079510;27;45432;-67
2022/10/23 03:46:34;;;;;;;;;6.25;6.00;;;;;;;;5079246;27;45447;-69
2022/10/23 03:48:59;;;;;;;;;4.00;4.00;;;;;;;;5079961;28;45655;-69
2022/10/23 03:51:25;;;;;;;;;4.25;4.25;;;;;;;;5079784;27;45456;-70
2022/10/23 03:53:50;;;;;;;;;9.00;9.00;;;;;;;;5079606;27;45747;-69
2022/10/23 03:56:16;;;;;;;;;6.00;6.00;;;;;;;;5079716;27;45399;-71
2022/10/23 03:58:41;;;;;;;;;5.75;5.75;;;;;;;;5079633;27;45631;-70
2022/10/23 04:01:06;;;;;;;;;4.00;4.00;;;;;;;;5079545;27;45357;-69
2022/10/23 04:03:32;;;;;;;;;5.00;5.00;;;;;;;;5080591;27;45349;-68
2022/10/23 04:05:57;;;;;;;;;5.75;5.75;;;;;;;;5081959;27;45195;-70
2022/10/23 04:08:22;;;;;;;;;5.25;5.25;;;;;;;;5079626;27;45571;-68
2022/10/23 04:10:47;;;;;;;;;4.75;4.75;;;;;;;;5078597;27;45299;-70
2022/10/23 04:13:12;;;;;;;;;7.00;7.00;;;;;;;;5078692;27;45428;-65
2022/10/23 04:15:38;;;;;;;;;6.00;6.00;;;;;;;;5079057;27;45166;-68
2022/10/23 04:18:03;;;;;;;;;4.00;4.00;;;;;;;;5080266;27;45516;-65
2022/10/23 04:20:28;;;;;;;;;5.00;5.00;;;;;;;;5080992;27;45308;-67
2022/10/23 04:22:53;;;;;;;;;5.75;5.75;;;;;;;;5078090;27;45271;-69
2022/10/23 04:25:18;;;;;;;;;6.00;6.00;;;;;;;;5078380;27;45433;-69
2022/10/23 04:27:44;;;;;;;;;7.50;7.50;;;;;;;;5080800;27;45600;-69
2022/10/23 04:30:09;;;;;;;;;5.75;5.75;;;;;;;;5082596;27;46107;-68
2022/10/23 04:32:34;;;;;;;;;6.75;6.75;;;;;;;;5078998;27;45282;-70
2022/10/23 04:35:00;;;;;;;;;5.50;5.50;;;;;;;;5078566;27;45391;-66
2022/10/23 04:37:25;;;;;;;;;6.00;6.00;;;;;;;;5078903;28;45573;-70
2022/10/23 04:39:50;;;;;;;;;11.00;11.00;;;;;;;;5077320;27;46887;-67
2022/10/23 04:42:16;;;;;;;;;6.75;6.75;;;;;;;;5077728;27;45306;-65
2022/10/23 04:44:41;;;;;;;;;7.50;7.50;;;;;;;;5077513;28;45504;-70
2022/10/23 04:47:06;;;;;;;;;6.75;6.75;;;;;;;;5078163;27;45373;-70
2022/10/23 04:49:31;;;;;;;;;5.75;5.75;;;;;;;;5078121;28;45209;-69
2022/10/23 04:51:56;;;;;;;;;7.50;7.50;;;;;;;;5078502;27;45404;-70
2022/10/23 04:54:22;;;;;;;;;7.50;7.50;;;;;;;;5082438;27;45298;-73
2022/10/23 04:56:47;;;;;;;;;5.25;5.25;;;;;;;;5108211;27;45433;-70
2022/10/23 04:59:12;;;;;;;;;5.75;5.75;;;;;;;;5096627;27;46252;-73
2022/10/23 05:01:37;;;;;;;;;6.75;6.75;;;;;;;;5097968;27;45292;-69
2022/10/23 05:04:03;;;;;;;;;5.50;5.50;;;;;;;;5098928;27;45372;-70
2022/10/23 05:06:28;;;;;;;;;7.00;6.50;;;;;;;;5099982;27;45423;-71
2022/10/23 05:08:54;;;;;;;;;11.00;11.00;;;;;;;;5097694;27;45508;-71
2022/10/23 05:11:19;;;;;;;;;8.25;8.25;;;;;;;;5096648;27;45423;-70
2022/10/23 05:13:44;;;;;;;;;8.00;7.75;;;;;;;;5082762;27;45394;-71
2022/10/23 05:16:18;;;;;;;;;8.00;8.00;;;;;;;;5082629;27;45251;-70
2022/10/23 05:18:45;;;;;;;;;5.50;5.50;;;;;;;;5082051;27;46647;-71
2022/10/23 05:21:13;;;;;;;;;6.75;6.75;;;;;;;;5080358;27;45341;-70
2022/10/23 05:23:40;;;;;;;;;6.75;6.75;;;;;;;;5078079;28;45206;-72
2022/10/23 05:26:05;;;;;;;;;6.00;6.00;;;;;;;;5096666;27;45316;-71
2022/10/23 05:28:30;;;;;;;;;6.50;6.50;;;;;;;;5080412;27;46784;-71
2022/10/23 05:30:59;;;;;;;;;8.00;8.00;;;;;;;;5078257;28;45290;-71
2022/10/23 05:33:25;;;;;;;;;6.00;6.00;;;;;;;;5104135;27;45455;-70
2022/10/23 05:35:50;;;;;;;;;7.00;7.00;;;;;;;;5105897;27;45501;-70
2022/10/23 05:38:15;;;;;;;;;6.25;6.25;;;;;;;;5087082;27;45416;-69
2022/10/23 05:40:41;;;;;;;;;6.00;6.00;;;;;;;;5077365;27;45325;-70
2022/10/23 05:43:06;;;;;;;;;7.50;7.50;;;;;;;;5081497;27;45417;-71
2022/10/23 05:45:31;;;;;;;;;6.75;6.75;;;;;;;;5076698;27;45251;-69
2022/10/23 05:47:56;;;;;;;;;5.25;4.75;;;;;;;;5083666;27;45558;-71
2022/10/23 05:50:21;;;;;;;;;7.50;7.50;;;;;;;;5096362;27;45226;-69
2022/10/23 05:52:47;;;;;;;;;7.50;7.50;;;;;;;;5095765;27;45424;-69
2022/10/23 05:55:13;;;;;;;;;7.00;7.00;;;;;;;;5095419;27;45266;-69
2022/10/23 05:57:38;;;;;;;;;9.25;8.00;;;;;;;;5096721;27;46898;-67
2022/10/23 06:00:04;;;;;;;;;7.00;7.00;;;;;;;;5097141;27;45277;-70
2022/10/23 06:02:29;;;;;;;;;8.00;8.00;;;;;;;;5094725;27;45245;-70
2022/10/23 06:04:54;;;;;;;;;9.00;9.00;;;;;;;;5080372;27;45595;-69
2022/10/23 06:07:23;;;;;;;;;5.25;5.25;;;;;;;;5079263;27;45972;-70
2022/10/23 06:09:48;;;;;;;;;7.50;7.50;;;;;;;;5095654;27;45263;-68
2022/10/23 06:12:14;;;;;;;;;6.25;6.25;;;;;;;;5096173;27;45451;-70
2022/10/23 06:14:39;;;;;;;;;7.25;7.25;;;;;;;;5095915;27;45455;-68
2022/10/23 06:17:04;;;;;;;;;8.25;8.25;;;;;;;;5096545;27;45507;-70
2022/10/23 06:19:29;;;;;;;;;8.00;8.00;;;;;;;;5096915;27;45518;-70
2022/10/23 06:21:54;;;;;;;;;8.00;8.00;;;;;;;;5096131;27;45400;-68
2022/10/23 06:24:20;;;;;;;;;11.50;11.50;;;;;;;;5096485;27;45339;-68
2022/10/23 06:26:45;;;;;;;;;7.00;7.00;;;;;;;;5095952;27;46258;-69
2022/10/23 06:29:10;;;;;;;;;7.00;7.00;;;;;;;;5079835;27;45342;-69
2022/10/23 06:31:35;;;;;;;;;8.00;8.00;;;;;;;;5075934;27;45438;-69
2022/10/23 06:34:00;;;;;;;;;7.25;7.25;;;;;;;;5091173;27;45439;-69
2022/10/23 06:36:26;;;;;;;;;8.75;8.75;;;;;;;;5095608;27;45416;-72
2022/10/23 06:38:51;;;;;;;;;10.25;10.25;;;;;;;;5097451;27;45474;-69
2022/10/23 06:41:17;;;;;;;;;21.00;21.00;;;;;;;;5099466;27;45386;-71
2022/10/23 06:43:42;;;;;;;;;7.00;7.00;;;;;;;;5102417;27;45366;-70
2022/10/23 06:46:08;;;;;;;;;8.00;8.00;;;;;;;;5098385;27;45253;-68
2022/10/23 06:48:34;;;;;;;;;12.25;11.25;;;;;;;;5086131;27;45247;-69
2022/10/23 06:51:03;;;;;;;;;8.50;8.50;;;;;;;;5079105;27;45260;-68
2022/10/23 06:53:28;;;;;;;;;8.75;8.75;;;;;;;;5079218;27;45326;-70
2022/10/23 06:55:57;;;;;;;;;13.75;13.75;;;;;;;;5081260;27;45473;-70
2022/10/23 06:58:24;;;;;;;;;8.75;8.75;;;;;;;;5087808;27;45406;-69
2022/10/23 07:00:49;;;;;;;;;7.25;7.25;;;;;;;;5096993;27;45403;-67
2022/10/23 07:03:15;;;;;;;;;11.00;11.00;;;;;;;;5096058;27;45620;-68
2022/10/23 07:05:40;;;;;;;;;9.25;9.25;;;;;;;;5094782;27;46105;-70
2022/10/23 07:08:05;;;;;;;;;9.50;9.50;;;;;;;;5095236;27;45313;-69
2022/10/23 07:10:30;;;;;;;;;7.75;7.75;;;;;;;;5094639;27;45254;-71
2022/10/23 07:12:59;;;;;;;;;8.75;8.75;;;;;;;;5096422;27;45600;-69
2022/10/23 07:15:25;;;;;;;;;8.00;8.00;;;;;;;;5088407;27;45472;-69
2022/10/23 07:17:50;;;;;;;;;9.00;8.25;;;;;;;;5078717;27;46789;-69
2022/10/23 07:20:15;;;;;;;;;9.50;9.50;;;;;;;;5095798;27;45464;-70
2022/10/23 07:22:40;;;;;;;;;11.75;11.75;;;;;;;;5097320;27;45682;-70
2022/10/23 07:25:06;;;;;;;;;13.50;13.50;;;;;;;;5100575;27;46018;-71
2022/10/23 07:27:34;;;;;;;;;11.00;11.00;;;;;;;;5096283;27;45747;-69
2022/10/23 07:30:00;;;;;;;;;9.00;9.00;;;;;;;;5099131;27;45397;-70
2022/10/23 07:32:27;;;;;;;;;12.00;12.00;;;;;;;;5089028;27;45503;-69
2022/10/23 07:34:52;;;;;;;;;14.00;13.25;;;;;;;;5078102;27;46624;-70
2022/10/23 07:37:17;;;;;;;;;10.00;10.00;;;;;;;;5078437;27;45271;-69
2022/10/23 07:39:42;;;;;;;;;8.00;8.00;;;;;;;;5098208;27;45276;-70
2022/10/23 07:42:08;;;;;;;;;9.25;9.25;;;;;;;;5099517;27;45365;-68
2022/10/23 07:44:33;;;;;;;;;9.25;9.25;;;;;;;;5098114;27;45332;-69
2022/10/23 07:46:58;;;;;;;;;8.50;8.50;;;;;;;;5093748;27;45331;-70
2022/10/23 07:49:23;;;;;;;;;10.75;10.75;;;;;;;;5094042;27;45413;-69
2022/10/23 07:51:49;;;;;;;;;10.75;10.75;;;;;;;;5097331;27;45604;-69
2022/10/23 07:54:15;;;;;;;;;7.25;7.25;;;;;;;;5098754;27;45984;-69
2022/10/23 07:56:40;;;;;;;;;10.25;10.00;;;;;;;;5101680;27;45401;-71
2022/10/23 07:59:05;;;;;;;;;10.75;10.25;;;;;;;;5099197;27;45404;-71
2022/10/23 08:01:32;;;;;;;;;8.50;8.50;;;;;;;;5097795;27;45290;-69
2022/10/23 08:03:57;;;;;;;;;9.00;9.00;;;;;;;;5099077;27;46584;-69
2022/10/23 08:06:23;;;;;;;;;11.50;11.50;;;;;;;;5080470;27;45442;-70
2022/10/23 08:08:48;;;;;;;;;10.75;10.25;;;;;;;;5079245;27;45285;-69
2022/10/23 08:11:14;;;;;;;;;7.75;7.75;;;;;;;;5111234;27;45516;-71
2022/10/23 08:13:39;;;;;;;;;9.75;9.75;;;;;;;;5095635;27;46648;-69
2022/10/23 08:16:05;;;;;;;;;8.00;8.00;;;;;;;;5097194;27;45345;-69
2022/10/23 08:18:30;;;;;;;;;7.50;7.50;;;;;;;;5089535;27;45315;-69
2022/10/23 08:20:59;;;;;;;;;9.50;9.50;;;;;;;;5078073;27;45623;-69
2022/10/23 08:23:25;;;;;;;;;9.00;9.00;;;;;;;;5094041;27;45336;-70
2022/10/23 08:25:55;;;;;;;;;8.75;8.25;;;;;;;;5098887;27;45370;-69
2022/10/23 08:28:20;;;;;;;;;9.25;8.75;;;;;;;;5098241;27;45558;-69
2022/10/23 08:30:45;;;;;;;;;11.00;11.00;;;;;;;;5093185;27;45201;-70
2022/10/23 08:33:11;;;;;;;;;10.25;10.25;;;;;;;;5089108;27;45416;-70
2022/10/23 08:35:36;;;;;;;;;9.00;9.00;;;;;;;;5095418;27;45416;-70
2022/10/23 08:38:02;;;;;;;;;7.00;7.00;;;;;;;;5085515;27;45991;-69
2022/10/23 08:40:27;;;;;;;;;9.25;9.25;;;;;;;;5077366;27;45533;-69
2022/10/23 08:42:57;;;;;;;;;11.25;11.25;;;;;;;;5093124;27;46319;-69
2022/10/23 08:45:28;;;;;;;;;9.25;9.25;;;;;;;;5096238;27;45250;-71
2022/10/23 08:47:57;;;;;;;;;11.00;11.00;;;;;;;;5098211;27;45334;-68
2022/10/23 08:50:22;;;;;;;;;10.25;10.25;;;;;;;;5096463;27;45290;-70
2022/10/23 08:52:51;;;;;;;;;7.00;7.00;;;;;;;;5091734;27;46141;-72
2022/10/23 08:55:20;;;;;;;;;8.75;8.75;;;;;;;;5077805;27;45235;-71
2022/10/23 08:57:54;;;;;;;;;10.25;10.25;;;;;;;;5075686;27;45725;-70
2022/10/23 09:00:20;;;;;;;;;8.00;8.00;;;;;;;;5099580;27;45595;-69
2022/10/23 09:02:47;;;;;;;;;8.00;8.00;;;;;;;;5083409;27;45478;-68
2022/10/23 09:05:20;;;;;;;;;52.00;44.00;;;;;;;;5089275;27;45240;-68
2022/10/23 09:07:57;;;;;;;;;7.00;7.00;;;;;;;;5076429;27;45402;-69
2022/10/23 09:10:22;;;;;;;;;9.25;9.25;;;;;;;;5081191;27;45173;-70
2022/10/23 09:12:48;;;;;;;;;14.00;14.00;;;;;;;;5094196;27;46460;-69
2022/10/23 09:15:48;;;;;;;;;9.25;9.25;;;;;;;;5098425;27;46306;-68
2022/10/23 09:18:15;;;;;;;;;8.75;7.75;;;;;;;;5079381;28;45598;-72
2022/10/23 09:20:42;;;;;;;;;11.00;10.75;;;;;;;;5088968;27;45488;-70
2022/10/23 09:23:19;;;;;;;;;8.50;8.50;;;;;;;;5097400;27;46402;-69
2022/10/23 09:25:45;;;;;;;;;9.75;9.75;;;;;;;;5099511;27;45423;-69
2022/10/23 09:28:17;;;;;;;;;7.75;7.75;;;;;;;;5098172;27;45343;-69
2022/10/23 09:30:42;;;;;;;;;8.50;8.50;;;;;;;;5092756;27;46010;-70
2022/10/23 09:33:13;;;;;;;;;6.25;6.25;;;;;;;;5086005;27;46049;-71
2022/10/23 09:35:49;;;;;;;;;7.50;7.50;;;;;;;;5093304;27;45413;-68
2022/10/23 09:38:29;;;;;;;;;10.75;10.50;;;;;;;;5090544;27;45375;-69
2022/10/23 09:40:56;;;;;;;;;8.25;8.25;;;;;;;;5085143;27;45252;-69
2022/10/23 09:43:24;;;;;;;;;11.00;11.00;;;;;;;;5084510;27;45454;-70
2022/10/23 09:45:59;;;;;;;;;5.75;5.75;;;;;;;;5075365;27;45381;-71
2022/10/23 09:48:25;;;;;;;;;7.75;7.75;;;;;;;;5090063;27;45573;-70
2022/10/23 09:50:52;;;;;;;;;6.00;6.00;;;;;;;;5098912;27;45322;-71
2022/10/23 09:53:25;;;;;;;;;8.00;8.00;;;;;;;;5082266;27;45245;-70
2022/10/23 09:55:51;;;;;;;;;7.00;7.00;;;;;;;;5090710;27;45401;-70
2022/10/23 09:58:19;;;;;;;;;7.00;7.00;;;;;;;;5095987;27;45326;-71
2022/10/23 10:00:47;;;;;;;;;11.00;11.00;;;;;;;;5087058;27;45478;-71
2022/10/23 10:03:20;;;;;;;;;6.25;6.25;;;;;;;;5087761;27;46062;-69
2022/10/23 10:05:53;;;;;;;;;6.75;6.75;;;;;;;;5096121;27;45282;-69
2022/10/23 10:08:36;;;;;;;;;8.00;8.00;;;;;;;;5096471;27;45234;-69
2022/10/23 10:11:04;;;;;;;;;7.50;7.50;;;;;;;;5095759;27;45392;-69
2022/10/23 10:13:32;;;;;;;;;16.00;16.00;;;;;;;;5094387;27;46091;-71
2022/10/23 10:16:09;;;;;;;;;5.50;5.50;;;;;;;;5095523;27;45779;-71
2022/10/23 10:18:38;;;;;;;;;7.25;6.75;;;;;;;;5095605;27;45489;-72
2022/10/23 10:21:04;;;;;;;;;4.75;4.75;;;;;;;;5095624;27;45428;-69
2022/10/23 10:23:54;;;;;;;;;7.50;7.50;;;;;;;;5094488;27;46138;-69
2022/10/23 10:26:54;;;;;;;;;7.00;7.00;;;;;;;;5090158;27;45508;-70
2022/10/23 10:29:34;;;;;;;;;9.75;9.75;;;;;;;;5068272;27;45456;-70
2022/10/23 10:32:04;;;;;;;;;6.50;6.50;;;;;;;;5095705;27;45496;-69
2022/10/23 10:34:40;;;;;;;;;5.25;5.25;;;;;;;;5094662;27;47169;-70
2022/10/23 10:37:14;;;;;;;;;5.25;5.25;;;;;;;;5095391;27;45327;-69
2022/10/23 10:39:44;;;;;;;;;7.75;7.75;;;;;;;;5092893;27;45340;-70
2022/10/23 10:42:10;;;;;;;;;4.25;4.25;;;;;;;;5095379;27;45511;-69
2022/10/23 10:44:42;;;;;;;;;5.60;5.60;;;;;;;;5095222;27;45362;-70
2022/10/23 10:47:26;;;;;;;;;8.00;8.00;;;;;;;;5092799;27;45557;-70
2022/10/23 10:50:10;;;;;;;;;6.25;5.50;;;;;;;;5094682;27;45443;-74
2022/10/23 10:52:50;;;;;;;;;4.00;4.00;;;;;;;;5094343;27;45722;-73
2022/10/23 10:55:18;;;;;;;;;7.25;7.25;;;;;;;;5096548;27;46319;-70
2022/10/23 10:57:54;;;;;;;;;10.50;10.50;;;;;;;;5091174;27;45243;-74
2022/10/23 11:00:21;;;;;;;;;8.00;7.50;;;;;;;;5095843;27;45234;-78
2022/10/23 11:02:56;;;;;;;;;7.75;7.75;;;;;;;;5106537;27;45270;-75
2022/10/23 11:05:21;;;;;;;;;7.25;7.25;;;;;;;;5110262;27;45237;-77
2022/10/23 11:07:52;;;;;;;;;6.50;6.50;;;;;;;;5107754;27;45358;-76
2022/10/23 11:10:17;;;;;;;;;10.50;10.50;;;;;;;;5104011;27;45298;-75
2022/10/23 11:12:44;;;;;;;;;8.25;8.25;;;;;;;;5093901;27;45555;-78
2022/10/23 11:15:36;;;;;;;;;9.00;9.00;;;;;;;;5092964;27;45537;-75
2022/10/23 11:18:05;;;;;;;;;7.00;7.00;;;;;;;;5097809;27;45346;-72
2022/10/23 11:20:49;;;;;;;;;6.00;6.00;;;;;;;;5097770;27;45385;-75
2022/10/23 11:23:33;;;;;;;;;6.00;6.00;;;;;;;;5102254;27;45450;-77
2022/10/23 11:26:19;;;;;;;;;5.50;5.50;;;;;;;;5099644;27;45593;-75
2022/10/23 11:28:50;;;;;;;;;8.00;8.00;;;;;;;;5079923;27;45495;-75
2022/10/23 11:31:23;;;;;;;;;6.75;6.75;;;;;;;;5077869;27;45294;-75
2022/10/23 11:33:56;;;;;;;;;8.50;8.50;;;;;;;;5086668;27;45467;-69
2022/10/23 11:36:42;;;;;;;;;8.75;8.75;;;;;;;;5095864;27;45378;-71
2022/10/23 11:39:22;;;;;;;;;7.00;7.00;;;;;;;;5090166;27;45399;-70
2022/10/23 11:41:49;;;;;;;;;7.00;7.00;;;;;;;;5081488;27;45606;-70
2022/10/23 11:44:22;;;;;;;;;9.50;9.50;;;;;;;;5088814;27;45468;-71
2022/10/23 11:46:58;;;;;;;;;6.00;6.00;;;;;;;;5079086;27;46396;-70
2022/10/23 11:49:23;;;;;;;;;8.00;8.00;;;;;;;;5077105;27;45885;-71
2022/10/23 11:51:58;;;;;;;;;7.50;7.00;;;;;;;;5077179;28;45507;-70
2022/10/23 11:54:24;;;;;;;;;6.75;6.75;;;;;;;;5083210;27;46089;-71
2022/10/23 11:57:09;;;;;;;;;6.00;5.25;;;;;;;;5095094;27;45439;-71
2022/10/23 11:59:55;;;;;;;;;7.00;7.00;;;;;;;;5083512;27;45348;-70
2022/10/23 12:02:41;;;;;;;;;7.00;7.00;;;;;;;;5089801;27;45486;-71
2022/10/23 12:05:08;;;;;;;;;6.00;6.00;;;;;;;;5089901;27;45612;-70
2022/10/23 12:07:35;;;;;;;;;6.75;6.75;;;;;;;;5076007;27;46520;-71
2022/10/23 12:10:00;;;;;;;;;8.75;8.75;;;;;;;;5076422;27;45364;-70
2022/10/23 12:12:30;;;;;;;;;6.25;6.25;;;;;;;;5086903;27;45796;-72
2022/10/23 12:15:14;;;;;;;;;3.00;3.00;;;;;;;;5092663;27;45226;-72
2022/10/23 12:17:40;;;;;;;;;6.50;6.50;;;;;;;;5075806;27;46875;-71
2022/10/23 12:20:11;;;;;;;;;5.00;5.00;;;;;;;;5093389;27;45345;-69
2022/10/23 12:22:43;;;;;;;;;7.25;7.25;;;;;;;;5095321;27;45365;-72
2022/10/23 12:25:15;;;;;;;;;6.25;6.25;;;;;;;;5099629;27;45612;-70
2022/10/23 12:27:45;;;;;;;;;10.50;10.50;;;;;;;;5097564;27;45394;-71
2022/10/23 12:30:19;;;;;;;;;5.25;5.25;;;;;;;;5098534;27;45373;-72
2022/10/23 12:33:02;;;;;;;;;6.50;6.50;;;;;;;;5100505;27;45372;-73
2022/10/23 12:35:55;;;;;;;;;6.00;6.00;;;;;;;;5098414;27;45461;-71
2022/10/23 12:38:23;;;;;;;;;14.25;12.75;;;;;;;;5096639;27;46455;-72
2022/10/23 12:40:53;;;;;;;;;4.25;4.25;;;;;;;;5097005;27;45384;-73
2022/10/23 12:43:22;;;;;;;;;6.00;5.00;;;;;;;;5098641;27;45342;-72
2022/10/23 12:45:47;;;;;;;;;7.75;7.75;;;;;;;;5096990;27;45628;-72
2022/10/23 12:48:20;;;;;;;;;5.50;5.50;;;;;;;;5096479;27;46079;-71
2022/10/23 12:50:49;;;;;;;;;4.00;4.00;;;;;;;;5095392;27;45299;-72
2022/10/23 12:53:15;;;;;;;;;5.50;5.50;;;;;;;;5096675;27;45397;-72
2022/10/23 12:55:50;;;;;;;;;4.50;4.50;;;;;;;;5096740;27;45589;-71
2022/10/23 12:58:20;;;;;;;;;4.00;4.00;;;;;;;;5096871;27;45546;-71
2022/10/23 13:00:49;;;;;;;;;5.75;5.75;;;;;;;;5097546;27;45363;-72
2022/10/23 13:03:14;;;;;;;;;3.00;3.00;;;;;;;;5096851;27;45453;-71
2022/10/23 13:05:40;;;;;;;;;6.25;6.25;;;;;;;;5096695;27;45531;-70
2022/10/23 13:08:05;;;;;;;;;5.50;5.50;;;;;;;;5096547;27;45335;-72
2022/10/23 13:10:32;;;;;;;;;16.00;16.00;;;;;;;;5097017;27;45388;-70
2022/10/23 13:12:59;;;;;;;;;10.25;10.25;;;;;;;;5095753;27;45299;-70
2022/10/23 13:15:25;;;;;;;;;4.75;4.75;;;;;;;;5095777;27;45659;-71
2022/10/23 13:17:56;;;;;;;;;6.25;6.25;;;;;;;;5096916;27;45371;-71
2022/10/23 13:20:34;;;;;;;;;4.50;4.50;;;;;;;;5095553;27;45398;-71
2022/10/23 13:23:10;;;;;;;;;5.00;5.00;;;;;;;;5096533;27;45412;-71
2022/10/23 13:25:37;;;;;;;;;4.00;4.00;;;;;;;;5096911;27;45326;-71
2022/10/23 13:28:13;;;;;;;;;4.00;4.00;;;;;;;;5096624;27;46342;-70
2022/10/23 13:30:41;;;;;;;;;15.25;15.25;;;;;;;;5096678;27;45446;-72
2022/10/23 13:33:22;;;;;;;;;5.25;5.25;;;;;;;;5096993;27;45259;-71
2022/10/23 13:35:55;;;;;;;;;7.00;7.00;;;;;;;;5096754;27;45418;-70
2022/10/23 13:38:26;;;;;;;;;51.00;43.50;;;;;;;;5096144;27;45386;-72
2022/10/23 13:40:54;;;;;;;;;8.00;7.25;;;;;;;;5096772;27;45217;-70
2022/10/23 13:43:22;;;;;;;;;5.00;5.00;;;;;;;;5096178;27;45322;-70
2022/10/23 13:45:47;;;;;;;;;8.25;8.25;;;;;;;;5097008;27;45429;-71
2022/10/23 13:48:12;;;;;;;;;2.50;2.50;;;;;;;;5096661;27;45306;-71
2022/10/23 13:50:38;;;;;;;;;6.00;6.00;;;;;;;;5096276;27;45431;-72
2022/10/23 13:53:04;;;;;;;;;10.00;10.00;;;;;;;;5096005;27;45392;-70
2022/10/23 13:55:30;;;;;;;;;4.00;4.00;;;;;;;;5096737;27;45551;-71
2022/10/23 13:57:55;;;;;;;;;5.25;5.25;;;;;;;;5097811;27;47149;-69
2022/10/23 14:00:20;;;;;;;;;8.00;8.00;;;;;;;;5095800;27;45236;-71
2022/10/23 14:02:46;;;;;;;;;4.25;4.25;;;;;;;;5096297;27;45504;-74
2022/10/23 14:05:11;;;;;;;;;10.25;10.25;;;;;;;;5096484;27;45354;-71
2022/10/23 14:07:36;;;;;;;;;4.00;4.00;;;;;;;;5096159;27;45487;-70
2022/10/23 14:10:02;;;;;;;;;5.00;5.00;;;;;;;;5096024;27;45439;-71
2022/10/23 14:12:27;;;;;;;;;6.25;6.25;;;;;;;;5096512;27;45212;-72
2022/10/23 14:14:52;;;;;;;;;4.00;4.00;;;;;;;;5096552;27;45660;-71
2022/10/23 14:17:18;;;;;;;;;4.75;4.25;;;;;;;;5095663;27;46101;-71
2022/10/23 14:19:44;;;;;;;;;5.00;5.00;;;;;;;;5096963;27;45250;-71
2022/10/23 14:22:09;;;;;;;;;6.00;6.00;;;;;;;;5098091;27;45260;-71
2022/10/23 14:24:34;;;;;;;;;6.00;6.00;;;;;;;;5096781;27;45321;-70
2022/10/23 14:27:00;;;;;;;;;5.75;5.75;;;;;;;;5096591;27;45373;-71
2022/10/23 14:29:25;;;;;;;;;4.50;4.50;;;;;;;;5097228;27;45161;-71
2022/10/23 14:31:51;;;;;;;;;24.25;24.25;;;;;;;;5096811;27;45314;-72
2022/10/23 14:34:16;;;;;;;;;4.25;4.25;;;;;;;;5100099;27;45212;-71
2022/10/23 14:36:41;;;;;;;;;3.75;3.75;;;;;;;;5099367;27;45317;-72
2022/10/23 14:39:06;;;;;;;;;7.50;7.50;;;;;;;;5099333;27;45218;-71
2022/10/23 14:41:32;;;;;;;;;16.00;16.00;;;;;;;;5099379;27;45372;-71
2022/10/23 14:43:57;;;;;;;;;5.75;5.75;;;;;;;;5099720;27;45604;-70
2022/10/23 14:46:23;;;;;;;;;5.25;5.25;;;;;;;;5098933;27;46353;-71
2022/10/23 14:48:48;;;;;;;;;5.50;5.50;;;;;;;;5099016;27;45392;-71